createdAt,value
2023-08-22T00:01:29.358Z,101246.06
2023-08-22T00:03:58.157Z,101213.59
2023-08-22T00:06:25.385Z,101281.53
2023-08-22T00:08:51.975Z,101284.41
2023-08-22T00:11:18.629Z,101243.31
2023-08-22T00:13:45.262Z,101266.03
2023-08-22T00:16:11.887Z,101272.47
2023-08-22T00:18:38.495Z,101224.50
2023-08-22T00:21:05.089Z,101233.25
2023-08-22T00:23:31.754Z,101247.00
2023-08-22T00:25:58.415Z,101234.69
2023-08-22T00:28:24.978Z,101236.91
2023-08-22T00:30:53.911Z,101259.13
2023-08-22T00:33:20.632Z,101263.53
2023-08-22T00:35:47.215Z,101256.31
2023-08-22T00:38:13.828Z,101253.78
2023-08-22T00:40:41.028Z,101252.91
2023-08-22T00:43:07.576Z,101206.16
2023-08-22T00:45:34.433Z,101242.97
2023-08-22T00:48:01.131Z,101249.88
2023-08-22T00:50:27.744Z,101226.78
2023-08-22T00:52:54.621Z,101223.72
2023-08-22T00:55:21.255Z,101234.41
2023-08-22T00:57:47.829Z,101195.47
2023-08-22T01:00:14.467Z,101214.94
2023-08-22T01:02:41.284Z,101207.16
2023-08-22T01:05:08.669Z,101220.88
2023-08-22T01:07:58.411Z,101218.66
2023-08-22T01:10:34.940Z,101193.06
2023-08-22T01:13:09.808Z,101218.06
2023-08-22T01:15:37.375Z,101214.81
2023-08-22T01:18:05.121Z,101208.91
2023-08-22T01:20:31.804Z,101203.31
2023-08-22T01:22:58.791Z,101177.41
2023-08-22T01:25:26.788Z,101214.56
2023-08-22T01:28:31.893Z,101208.47
2023-08-22T01:31:13.054Z,101168.75
2023-08-22T01:33:54.444Z,101188.78
2023-08-22T01:36:21.704Z,101192.88
2023-08-22T01:38:49.940Z,101210.25
2023-08-22T01:41:17.208Z,101204.81
2023-08-22T01:43:44.349Z,101178.00
2023-08-22T01:46:10.988Z,101171.41
2023-08-22T01:48:37.725Z,101207.22
2023-08-22T01:51:04.276Z,101174.09
2023-08-22T01:53:30.920Z,101190.53
2023-08-22T01:56:01.031Z,101203.47
2023-08-22T01:58:27.643Z,101168.22
2023-08-22T02:00:54.307Z,101205.38
2023-08-22T02:03:24.778Z,101199.13
2023-08-22T02:05:51.616Z,101189.59
2023-08-22T02:08:18.237Z,101159.75
2023-08-22T02:10:44.816Z,101194.66
2023-08-22T02:13:11.364Z,101157.72
2023-08-22T02:15:37.939Z,101141.91
2023-08-22T02:18:05.662Z,101199.78
2023-08-22T02:20:32.394Z,101201.44
2023-08-22T02:22:59.664Z,101198.63
2023-08-22T02:25:27.276Z,101193.00
2023-08-22T02:27:53.828Z,101182.88
2023-08-22T02:30:20.593Z,101197.69
2023-08-22T02:32:48.995Z,101159.78
2023-08-22T02:35:15.750Z,101192.59
2023-08-22T02:37:43.130Z,101178.38
2023-08-22T02:40:10.678Z,101182.16
2023-08-22T02:42:37.625Z,101185.78
2023-08-22T02:45:05.891Z,101192.84
2023-08-22T02:47:32.741Z,101177.94
2023-08-22T02:49:59.678Z,101099.56
2023-08-22T02:52:26.271Z,101149.91
2023-08-22T02:54:53.606Z,101174.63
2023-08-22T02:57:20.287Z,101188.50
2023-08-22T02:59:46.853Z,101192.03
2023-08-22T03:02:13.430Z,101185.63
2023-08-22T03:04:40.086Z,101199.41
2023-08-22T03:07:06.820Z,101196.47
2023-08-22T03:09:33.633Z,101152.63
2023-08-22T03:12:00.151Z,101176.25
2023-08-22T03:14:26.718Z,101197.13
2023-08-22T03:16:53.685Z,101198.59
2023-08-22T03:19:20.367Z,101153.16
2023-08-22T03:21:46.953Z,101163.56
2023-08-22T03:24:13.535Z,101171.97
2023-08-22T03:26:40.153Z,101201.44
2023-08-22T03:29:06.796Z,101205.31
2023-08-22T03:31:33.489Z,101146.78
2023-08-22T03:34:00.770Z,101201.31
2023-08-22T03:36:27.368Z,101153.50
2023-08-22T03:38:54.185Z,101209.34
2023-08-22T03:41:20.693Z,101182.25
2023-08-22T03:43:47.354Z,101194.97
2023-08-22T03:46:21.682Z,101146.47
2023-08-22T03:48:54.732Z,101198.78
2023-08-22T03:51:21.426Z,101189.97
2023-08-22T03:53:48.097Z,101190.16
2023-08-22T03:56:14.770Z,101176.06
2023-08-22T03:58:41.400Z,101180.53
2023-08-22T04:01:08.053Z,101176.44
2023-08-22T04:03:34.779Z,101147.81
2023-08-22T04:06:01.389Z,101180.53
2023-08-22T04:08:27.995Z,101171.03
2023-08-22T04:10:54.607Z,101143.09
2023-08-22T04:13:21.417Z,101179.06
2023-08-22T04:15:48.349Z,101137.53
2023-08-22T04:18:15.106Z,101177.22
2023-08-22T04:20:44.307Z,101179.38
2023-08-22T04:23:11.519Z,101173.53
2023-08-22T04:25:38.457Z,101170.22
2023-08-22T04:28:06.194Z,101173.28
2023-08-22T04:30:33.352Z,101133.94
2023-08-22T04:33:00.069Z,101172.88
2023-08-22T04:35:26.811Z,101148.28
2023-08-22T04:37:53.418Z,101178.72
2023-08-22T04:40:20.149Z,101179.47
2023-08-22T04:42:46.737Z,101177.91
2023-08-22T04:45:13.467Z,101181.50
2023-08-22T04:47:40.349Z,101173.53
2023-08-22T04:50:07.950Z,101185.78
2023-08-22T04:52:34.505Z,101140.19
2023-08-22T04:55:01.450Z,101183.25
2023-08-22T04:57:27.948Z,101152.53
2023-08-22T04:59:55.182Z,101171.03
2023-08-22T05:02:25.922Z,101179.47
2023-08-22T05:04:52.713Z,101182.75
2023-08-22T05:07:19.322Z,101141.56
2023-08-22T05:09:45.923Z,101162.81
2023-08-22T05:12:12.565Z,101184.75
2023-08-22T05:14:40.895Z,101182.25
2023-08-22T05:17:07.742Z,101154.94
2023-08-22T05:19:34.448Z,101102.59
2023-08-22T05:22:01.119Z,101187.75
2023-08-22T05:24:27.907Z,101158.56
2023-08-22T05:26:54.520Z,101184.38
2023-08-22T05:29:21.777Z,101157.31
2023-08-22T05:31:48.441Z,101184.38
2023-08-22T05:34:15.667Z,101145.25
2023-08-22T05:36:42.328Z,101177.75
2023-08-22T05:39:08.941Z,101186.31
2023-08-22T05:41:35.529Z,101163.31
2023-08-22T05:44:02.154Z,101134.88
2023-08-22T05:46:28.787Z,101190.09
2023-08-22T05:48:56.491Z,101186.97
2023-08-22T05:51:23.216Z,101181.84
2023-08-22T05:53:49.934Z,101197.69
2023-08-22T05:56:16.588Z,101193.34
2023-08-22T05:58:43.182Z,101196.38
2023-08-22T06:01:13.014Z,101197.13
2023-08-22T06:03:40.299Z,101153.81
2023-08-22T06:06:06.888Z,101187.50
2023-08-22T06:08:33.478Z,101201.66
2023-08-22T06:11:00.072Z,101201.56
2023-08-22T06:13:26.625Z,101197.81
2023-08-22T06:15:53.152Z,101203.03
2023-08-22T06:18:19.737Z,101178.34
2023-08-22T06:20:47.386Z,101194.69
2023-08-22T06:23:14.060Z,101198.03
2023-08-22T06:25:40.805Z,101193.88
2023-08-22T06:28:07.876Z,101193.03
2023-08-22T06:30:34.497Z,101186.06
2023-08-22T06:33:01.161Z,101203.88
2023-08-22T06:37:55.977Z,101198.00
2023-08-22T06:40:23.810Z,101199.69
2023-08-22T06:42:50.694Z,101208.34
2023-08-22T06:45:17.378Z,101209.31
2023-08-22T06:47:44.358Z,101203.31
2023-08-22T06:50:11.230Z,101207.34
2023-08-22T06:52:38.125Z,101206.31
2023-08-22T06:55:05.082Z,101213.88
2023-08-22T06:57:33.314Z,101182.69
2023-08-22T07:00:08.291Z,101208.47
2023-08-22T07:02:34.983Z,101218.22
2023-08-22T07:05:02.327Z,101203.34
2023-08-22T07:07:28.977Z,101203.94
2023-08-22T07:09:55.553Z,101219.09
2023-08-22T07:12:22.243Z,101212.00
2023-08-22T07:14:49.085Z,101170.84
2023-08-22T07:17:15.651Z,101177.22
2023-08-22T07:19:42.757Z,101222.94
2023-08-22T07:22:09.595Z,101227.28
2023-08-22T07:24:36.275Z,101182.59
2023-08-22T07:27:03.143Z,101213.13
2023-08-22T07:29:29.703Z,101202.84
2023-08-22T07:31:59.405Z,101185.59
2023-08-22T07:34:26.170Z,101219.53
2023-08-22T07:36:53.603Z,101218.34
2023-08-22T07:39:22.377Z,101201.84
2023-08-22T07:41:49.055Z,101206.47
2023-08-22T07:44:15.978Z,101218.44
2023-08-22T07:46:43.073Z,101214.09
2023-08-22T07:49:09.866Z,101212.31
2023-08-22T07:51:37.561Z,101215.50
2023-08-22T07:54:07.553Z,101197.31
2023-08-22T07:56:37.253Z,101201.06
2023-08-22T07:59:03.825Z,101170.72
2023-08-22T08:01:30.322Z,101216.75
2023-08-22T08:03:57.204Z,101224.06
2023-08-22T08:06:23.846Z,101182.44
2023-08-22T08:08:50.396Z,101203.75
2023-08-22T08:11:16.904Z,101230.34
2023-08-22T08:13:43.679Z,101236.00
2023-08-22T08:16:10.550Z,101230.09
2023-08-22T08:18:37.127Z,101235.59
2023-08-22T08:21:03.928Z,101218.44
2023-08-22T08:23:31.384Z,101234.06
2023-08-22T08:25:57.964Z,101205.94
2023-08-22T08:28:25.240Z,101246.72
2023-08-22T08:30:51.990Z,101241.94
2023-08-22T08:33:18.561Z,101235.34
2023-08-22T08:35:45.128Z,101215.16
2023-08-22T08:38:11.797Z,101227.50
2023-08-22T08:40:39.068Z,101234.72
2023-08-22T08:43:05.652Z,101232.66
2023-08-22T08:45:32.294Z,101209.06
2023-08-22T08:48:02.229Z,101230.31
2023-08-22T08:50:28.973Z,101220.28
2023-08-22T08:52:55.679Z,101238.38
2023-08-22T08:55:22.275Z,101238.97
2023-08-22T08:57:49.242Z,101244.13
2023-08-22T09:00:16.564Z,101244.97
2023-08-22T09:02:45.299Z,101231.94
2023-08-22T09:05:12.864Z,101240.13
2023-08-22T09:07:39.845Z,101213.72
2023-08-22T09:10:07.495Z,101240.75
2023-08-22T09:12:35.969Z,101248.81
2023-08-22T09:15:02.775Z,101246.28
2023-08-22T09:17:32.540Z,101250.75
2023-08-22T09:19:59.254Z,101205.09
2023-08-22T09:22:32.151Z,101212.69
2023-08-22T09:24:59.029Z,101237.78
2023-08-22T09:27:29.255Z,101230.03
2023-08-22T09:30:02.219Z,101239.75
2023-08-22T09:32:28.874Z,101237.53
2023-08-22T09:34:57.755Z,101230.06
2023-08-22T09:37:32.242Z,101237.97
2023-08-22T09:39:59.041Z,101245.94
2023-08-22T09:42:29.232Z,101236.72
2023-08-22T09:44:59.552Z,101222.06
2023-08-22T09:47:30.026Z,101236.19
2023-08-22T09:50:01.474Z,101194.19
2023-08-22T09:52:27.977Z,101210.09
2023-08-22T09:54:56.257Z,101237.09
2023-08-22T09:57:26.216Z,101207.59
2023-08-22T09:59:52.833Z,101214.44
2023-08-22T10:02:22.787Z,101226.97
2023-08-22T10:04:49.594Z,101227.78
2023-08-22T10:07:16.239Z,101208.94
2023-08-22T10:09:43.315Z,101209.81
2023-08-22T10:12:12.626Z,101215.38
2023-08-22T10:14:51.605Z,101216.16
2023-08-22T10:17:18.275Z,101213.00
2023-08-22T10:19:45.485Z,101205.28
2023-08-22T10:22:14.531Z,101215.63
2023-08-22T10:24:42.379Z,101211.91
2023-08-22T10:27:13.809Z,101213.16
2023-08-22T10:29:46.303Z,101207.09
2023-08-22T10:32:12.926Z,101203.31
2023-08-22T10:34:39.633Z,101206.34
2023-08-22T10:37:17.527Z,101179.41
2023-08-22T10:39:48.513Z,101146.94
2023-08-22T10:42:15.057Z,101200.03
2023-08-22T10:44:42.622Z,101171.75
2023-08-22T10:47:28.786Z,101171.25
2023-08-22T10:52:27.380Z,101197.66
2023-08-22T10:55:01.628Z,101192.75
2023-08-22T10:57:31.003Z,101186.97
2023-08-22T11:00:01.207Z,101189.06
2023-08-22T11:02:32.858Z,101183.22
2023-08-22T11:05:00.604Z,101185.00
2023-08-22T11:07:27.979Z,101184.50
2023-08-22T11:09:54.840Z,101182.44
2023-08-22T11:12:23.049Z,101176.59
2023-08-22T11:14:51.516Z,101175.81
2023-08-22T11:17:20.100Z,101167.06
2023-08-22T11:19:47.939Z,101192.34
2023-08-22T11:22:15.150Z,101206.50
2023-08-22T11:24:46.203Z,101195.53
2023-08-22T11:27:16.780Z,101199.91
2023-08-22T11:29:51.244Z,101200.09
2023-08-22T11:32:30.045Z,101157.31
2023-08-22T11:35:02.947Z,101203.25
2023-08-22T11:37:31.871Z,101199.06
2023-08-22T11:40:02.026Z,101214.00
2023-08-22T11:42:34.361Z,101188.88
2023-08-22T11:45:11.079Z,101222.72
2023-08-22T11:47:44.420Z,101212.16
2023-08-22T11:50:24.782Z,101211.78
2023-08-22T11:53:09.872Z,101200.19
2023-08-22T11:55:39.791Z,101195.00
2023-08-22T11:58:06.627Z,101197.84
2023-08-22T12:00:35.763Z,101195.13
2023-08-22T12:03:06.697Z,101184.69
2023-08-22T12:05:41.322Z,101192.59
2023-08-22T12:08:07.860Z,101190.81
2023-08-22T12:10:55.313Z,101188.31
2023-08-22T12:13:23.363Z,101192.56
2023-08-22T12:15:51.248Z,101180.44
2023-08-22T12:18:18.435Z,101172.84
2023-08-22T12:20:46.968Z,101179.66
2023-08-22T12:23:14.377Z,101185.41
2023-08-22T12:25:42.958Z,101190.06
2023-08-22T12:28:10.988Z,101190.41
2023-08-22T12:30:39.081Z,101175.38
2023-08-22T12:33:07.902Z,101193.41
2023-08-22T12:35:36.003Z,101201.59
2023-08-22T12:38:03.829Z,101156.19
2023-08-22T12:40:30.459Z,101198.75
2023-08-22T12:42:59.281Z,101181.50
2023-08-22T12:45:26.461Z,101182.22
2023-08-22T12:47:53.279Z,101180.03
2023-08-22T12:50:20.063Z,101178.03
2023-08-22T12:52:46.798Z,101205.97
2023-08-22T12:55:13.821Z,101211.41
2023-08-22T12:57:41.188Z,101171.34
2023-08-22T13:00:11.387Z,101198.06
2023-08-22T13:02:40.378Z,101160.97
2023-08-22T13:05:07.762Z,101191.59
2023-08-22T13:07:34.654Z,101162.44
2023-08-22T13:10:01.256Z,101198.84
2023-08-22T13:12:28.686Z,101168.25
2023-08-22T13:14:55.313Z,101157.56
2023-08-22T13:17:21.917Z,101196.00
2023-08-22T13:19:48.647Z,101196.09
2023-08-22T13:22:15.590Z,101188.94
2023-08-22T13:24:42.478Z,101084.03
2023-08-22T13:27:09.086Z,101200.31
2023-08-22T13:29:35.700Z,101184.94
2023-08-22T13:32:02.446Z,101186.28
2023-08-22T13:34:29.333Z,101144.47
2023-08-22T13:36:55.961Z,101160.22
2023-08-22T13:39:22.827Z,101181.41
2023-08-22T13:41:49.714Z,101194.31
2023-08-22T13:44:16.288Z,101185.91
2023-08-22T13:46:43.273Z,101199.38
2023-08-22T13:49:10.073Z,101173.00
2023-08-22T13:51:36.736Z,101191.47
2023-08-22T13:54:04.329Z,101148.47
2023-08-22T13:56:32.011Z,101120.88
2023-08-22T13:58:59.262Z,101162.53
2023-08-22T14:01:27.472Z,101189.50
2023-08-22T14:03:54.486Z,101175.47
2023-08-22T14:06:21.102Z,101178.16
2023-08-22T14:08:50.924Z,101189.03
2023-08-22T14:11:17.467Z,101170.19
2023-08-22T14:13:44.691Z,101169.09
2023-08-22T14:16:11.618Z,101180.22
2023-08-22T14:18:38.742Z,101192.66
2023-08-22T14:21:05.421Z,101196.63
2023-08-22T14:23:32.049Z,101183.72
2023-08-22T14:25:58.664Z,101194.31
2023-08-22T14:28:25.463Z,101177.91
2023-08-22T14:31:01.303Z,101188.25
2023-08-22T14:33:28.136Z,101173.56
2023-08-22T14:35:54.814Z,101147.44
2023-08-22T14:38:21.385Z,101153.31
2023-08-22T14:40:58.155Z,101196.25
2023-08-22T14:43:27.654Z,101204.91
2023-08-22T14:45:54.657Z,101196.78
2023-08-22T14:48:21.520Z,101197.53
2023-08-22T14:50:48.561Z,101193.00
2023-08-22T14:53:17.285Z,101186.63
2023-08-22T14:56:03.798Z,101180.28
2023-08-22T14:58:44.284Z,101175.84
2023-08-22T15:01:11.949Z,101197.28
2023-08-22T15:03:39.938Z,101195.94
2023-08-22T15:06:06.809Z,101200.53
2023-08-22T15:08:33.665Z,101191.66
2023-08-22T15:11:00.698Z,101193.44
2023-08-22T15:13:29.486Z,101160.00
2023-08-22T15:15:59.520Z,101196.09
2023-08-22T15:18:26.629Z,101180.03
2023-08-22T15:20:54.772Z,101177.81
2023-08-22T15:23:22.542Z,101181.75
2023-08-22T15:25:51.508Z,101176.19
2023-08-22T15:28:18.490Z,101169.88
2023-08-22T15:30:45.369Z,101178.22
2023-08-22T15:33:12.421Z,101147.63
2023-08-22T15:35:46.233Z,101186.63
2023-08-22T15:38:13.324Z,101175.44
2023-08-22T15:40:50.363Z,101181.69
2023-08-22T15:43:18.756Z,101180.91
2023-08-22T15:45:47.026Z,101188.81
2023-08-22T15:48:13.933Z,101186.09
2023-08-22T15:50:41.100Z,101151.63
2023-08-22T15:53:07.663Z,101150.84
2023-08-22T15:55:34.314Z,101161.47
2023-08-22T15:58:01.905Z,101148.97
2023-08-22T16:00:29.392Z,101176.34
2023-08-22T16:02:58.890Z,101157.44
2023-08-22T16:05:25.972Z,101185.44
2023-08-22T16:07:52.508Z,101192.38
2023-08-22T16:10:19.140Z,101179.19
2023-08-22T16:12:45.699Z,101156.59
2023-08-22T16:15:12.271Z,101183.25
2023-08-22T16:17:38.982Z,101147.28
2023-08-22T16:20:06.400Z,101170.91
2023-08-22T16:22:33.068Z,101077.50
2023-08-22T16:24:59.604Z,101169.88
2023-08-22T16:27:35.891Z,101150.00
2023-08-22T16:30:03.582Z,101161.81
2023-08-22T16:32:30.334Z,101151.81
2023-08-22T16:34:56.875Z,101134.47
2023-08-22T16:37:23.391Z,101148.81
2023-08-22T16:39:50.156Z,101159.38
2023-08-22T16:42:16.716Z,101159.63
2023-08-22T16:44:43.284Z,101160.72
2023-08-22T16:47:10.706Z,101159.78
2023-08-22T16:49:37.312Z,101146.38
2023-08-22T16:52:05.004Z,101142.94
2023-08-22T16:54:31.609Z,101168.53
2023-08-22T16:56:58.694Z,101166.00
2023-08-22T16:59:25.288Z,101172.03
2023-08-22T17:01:51.822Z,101154.09
2023-08-22T17:04:18.499Z,101163.53
2023-08-22T17:06:45.125Z,101140.34
2023-08-22T17:09:11.794Z,101129.69
2023-08-22T17:11:38.438Z,101125.03
2023-08-22T17:14:05.927Z,101174.41
2023-08-22T17:16:33.102Z,101119.66
2023-08-22T17:18:59.887Z,101177.22
2023-08-22T17:21:26.497Z,101166.13
2023-08-22T17:23:53.656Z,101174.84
2023-08-22T17:26:20.479Z,101135.50
2023-08-22T17:28:47.047Z,101146.81
2023-08-22T17:31:14.232Z,101173.25
2023-08-22T17:33:43.435Z,101172.16
2023-08-22T17:36:12.030Z,101152.84
2023-08-22T17:38:40.188Z,101165.66
2023-08-22T17:41:09.460Z,101166.78
2023-08-22T17:43:39.848Z,101164.47
2023-08-22T17:46:06.695Z,101114.97
2023-08-22T17:48:33.564Z,101165.50
2023-08-22T17:51:01.219Z,101141.50
2023-08-22T17:53:28.378Z,101169.94
2023-08-22T17:55:55.302Z,101158.31
2023-08-22T17:58:22.914Z,101160.84
2023-08-22T18:00:51.260Z,101120.56
2023-08-22T18:03:18.333Z,101149.19
2023-08-22T18:05:59.009Z,101148.06
2023-08-22T18:08:25.796Z,101100.56
2023-08-22T18:10:53.319Z,101162.28
2023-08-22T18:13:20.606Z,101165.66
2023-08-22T18:16:02.654Z,101164.00
2023-08-22T18:18:33.910Z,101147.72
2023-08-22T18:21:04.512Z,101124.91
2023-08-22T18:23:31.645Z,101161.50
2023-08-22T18:26:03.009Z,101167.38
2023-08-22T18:28:32.309Z,101164.47
2023-08-22T18:31:01.677Z,101141.25
2023-08-22T18:33:28.410Z,101172.56
2023-08-22T18:35:55.014Z,101131.34
2023-08-22T18:38:22.578Z,101177.81
2023-08-22T18:40:53.356Z,101189.34
2023-08-22T18:43:19.936Z,101188.66
2023-08-22T18:45:47.124Z,101189.44
2023-08-22T18:48:14.196Z,101187.75
2023-08-22T18:50:41.085Z,101196.13
2023-08-22T18:53:07.763Z,101195.28
2023-08-22T18:55:35.196Z,101209.22
2023-08-22T18:58:02.300Z,101210.03
2023-08-22T19:00:28.910Z,101192.06
2023-08-22T19:02:57.836Z,101210.72
2023-08-22T19:05:24.829Z,101171.34
2023-08-22T19:07:52.840Z,101203.75
2023-08-22T19:10:19.993Z,101213.91
2023-08-22T19:12:46.709Z,101213.66
2023-08-22T19:15:13.458Z,101196.19
2023-08-22T19:17:40.119Z,101220.41
2023-08-22T19:20:07.174Z,101213.34
2023-08-22T19:22:33.895Z,101198.47
2023-08-22T19:25:00.514Z,101207.34
2023-08-22T19:27:27.109Z,101211.16
2023-08-22T19:29:54.021Z,101221.63
2023-08-22T19:32:31.652Z,101222.28
2023-08-22T19:35:03.404Z,101230.59
2023-08-22T19:37:30.522Z,101212.69
2023-08-22T19:39:57.061Z,101201.41
2023-08-22T19:42:23.764Z,101205.94
2023-08-22T19:44:57.013Z,101152.03
2023-08-22T19:47:23.790Z,101145.22
2023-08-22T19:49:51.163Z,101242.78
2023-08-22T19:52:18.197Z,101244.06
2023-08-22T19:54:44.925Z,101236.50
2023-08-22T19:57:11.546Z,101236.19
2023-08-22T19:59:38.368Z,101246.84
2023-08-22T20:02:05.939Z,101228.69
2023-08-22T20:04:32.894Z,101241.00
2023-08-22T20:06:59.470Z,101211.25
2023-08-22T20:09:26.320Z,101194.53
2023-08-22T20:11:53.028Z,101215.16
2023-08-22T20:14:19.803Z,101199.72
2023-08-22T20:16:46.597Z,101227.13
2023-08-22T20:19:13.919Z,101253.44
2023-08-22T20:21:40.500Z,101251.03
2023-08-22T20:24:07.069Z,101248.78
2023-08-22T20:26:41.095Z,101246.94
2023-08-22T20:29:09.257Z,101251.75
2023-08-22T20:31:38.240Z,101248.22
2023-08-22T20:34:05.154Z,101208.00
2023-08-22T20:36:31.871Z,101232.34
2023-08-22T20:39:00.630Z,101167.19
2023-08-22T20:41:29.791Z,101203.03
2023-08-22T20:43:57.790Z,101232.63
2023-08-22T20:46:24.575Z,101242.16
2023-08-22T20:48:52.482Z,101225.31
2023-08-22T20:51:18.992Z,101238.84
2023-08-22T20:53:45.575Z,101230.31
2023-08-22T20:56:12.188Z,101205.63
2023-08-22T20:58:38.955Z,101220.41
2023-08-22T21:01:05.578Z,101239.03
2023-08-22T21:03:32.365Z,101218.97
2023-08-22T21:05:59.220Z,101220.28
2023-08-22T21:08:26.388Z,101233.25
2023-08-22T21:10:53.163Z,101210.56
2023-08-22T21:13:19.719Z,101233.72
2023-08-22T21:15:46.271Z,101239.88
2023-08-22T21:18:13.157Z,101229.13
2023-08-22T21:20:39.812Z,101191.53
2023-08-22T21:23:10.010Z,101194.78
2023-08-22T21:25:37.256Z,101147.03
2023-08-22T21:28:04.260Z,101232.97
2023-08-22T21:30:30.936Z,101228.19
2023-08-22T21:32:57.575Z,101181.13
2023-08-22T21:35:24.205Z,101217.88
2023-08-22T21:37:50.790Z,101234.13
2023-08-22T21:40:17.635Z,101199.28
2023-08-22T21:42:44.678Z,101242.25
2023-08-22T21:45:12.948Z,101243.09
2023-08-22T21:47:40.755Z,101233.41
2023-08-22T21:50:08.127Z,101231.66
2023-08-22T21:52:35.732Z,101187.09
2023-08-22T21:55:02.569Z,101238.91
2023-08-22T21:57:29.213Z,101206.47
2023-08-22T21:59:55.731Z,101240.97
2023-08-22T22:02:22.383Z,101184.16
2023-08-22T22:04:48.944Z,101242.50
2023-08-22T22:07:17.750Z,101217.75
2023-08-22T22:09:44.480Z,101244.97
2023-08-22T22:12:11.077Z,101246.00
2023-08-22T22:14:38.425Z,101215.63
2023-08-22T22:17:06.267Z,101253.38
2023-08-22T22:19:33.014Z,101250.38
2023-08-22T22:21:59.698Z,101216.41
2023-08-22T22:24:26.329Z,101257.81
2023-08-22T22:26:53.287Z,101209.72
2023-08-22T22:29:20.681Z,101253.50
2023-08-22T22:31:47.224Z,101227.09
2023-08-22T22:34:13.856Z,101262.97
2023-08-22T22:36:40.688Z,101217.56
2023-08-22T22:39:07.289Z,101242.91
2023-08-22T22:41:34.034Z,101251.13
2023-08-22T22:44:00.614Z,101256.06
2023-08-22T22:46:27.484Z,101242.25
2023-08-22T22:48:54.291Z,101214.91
2023-08-22T22:51:20.899Z,101262.06
2023-08-22T22:53:47.438Z,101261.53
2023-08-22T22:56:14.086Z,101266.59
2023-08-22T22:58:40.802Z,101268.25
2023-08-22T23:01:09.228Z,101251.72
2023-08-22T23:03:35.953Z,101258.63
2023-08-22T23:06:09.810Z,101225.28
2023-08-22T23:08:36.899Z,101255.22
2023-08-22T23:11:05.064Z,101250.66
2023-08-22T23:13:35.466Z,101227.97
2023-08-22T23:16:02.158Z,101266.53
2023-08-22T23:18:28.727Z,101257.41
2023-08-22T23:20:55.353Z,101257.78
2023-08-22T23:23:21.892Z,101254.59
2023-08-22T23:25:52.214Z,101248.19
2023-08-22T23:28:18.883Z,101254.78
2023-08-22T23:30:45.527Z,101250.03
2023-08-22T23:33:12.321Z,101221.47
2023-08-22T23:35:39.082Z,101240.28
2023-08-22T23:38:05.751Z,101245.72
2023-08-22T23:40:32.340Z,101251.31
2023-08-22T23:42:58.957Z,101230.06
2023-08-22T23:45:26.295Z,101237.63
2023-08-22T23:47:53.333Z,101243.41
2023-08-22T23:50:20.039Z,101255.22
2023-08-22T23:52:46.801Z,101241.22
2023-08-22T23:55:13.539Z,101239.34
2023-08-22T23:57:40.447Z,101243.75
